sensor_id;sensor_type;location;lat;lon;timestamp;temperature;humidity
8709;DHT22;4391;48.678;9.280;2023-03-08T00:00:40;3.50;99.90
8709;DHT22;4391;48.678;9.280;2023-03-08T00:03:08;3.50;99.90
8709;DHT22;4391;48.678;9.280;2023-03-08T00:05:37;3.50;99.90
8709;DHT22;4391;48.678;9.280;2023-03-08T00:08:04;3.50;99.90
8709;DHT22;4391;48.678;9.280;2023-03-08T00:10:31;3.60;99.90
8709;DHT22;4391;48.678;9.280;2023-03-08T00:12:57;3.50;99.90
8709;DHT22;4391;48.678;9.280;2023-03-08T00:15:26;3.60;99.90
8709;DHT22;4391;48.678;9.280;2023-03-08T00:17:52;3.50;99.90
8709;DHT22;4391;48.678;9.280;2023-03-08T00:20:19;3.60;99.90
8709;DHT22;4391;48.678;9.280;2023-03-08T00:22:46;3.60;99.90
8709;DHT22;4391;48.678;9.280;2023-03-08T00:25:13;3.70;99.90
8709;DHT22;4391;48.678;9.280;2023-03-08T00:27:41;3.70;99.90
8709;DHT22;4391;48.678;9.280;2023-03-08T00:30:09;3.70;99.90
8709;DHT22;4391;48.678;9.280;2023-03-08T00:32:37;3.70;99.90
8709;DHT22;4391;48.678;9.280;2023-03-08T00:35:04;3.70;99.90
8709;DHT22;4391;48.678;9.280;2023-03-08T00:37:31;3.70;99.90
8709;DHT22;4391;48.678;9.280;2023-03-08T00:39:58;3.70;99.90
8709;DHT22;4391;48.678;9.280;2023-03-08T00:42:25;3.80;99.90
8709;DHT22;4391;48.678;9.280;2023-03-08T00:44:52;3.80;99.90
8709;DHT22;4391;48.678;9.280;2023-03-08T00:47:18;3.80;99.90
8709;DHT22;4391;48.678;9.280;2023-03-08T00:49:47;3.80;99.90
8709;DHT22;4391;48.678;9.280;2023-03-08T00:52:13;3.80;99.90
8709;DHT22;4391;48.678;9.280;2023-03-08T00:54:40;3.70;99.90
8709;DHT22;4391;48.678;9.280;2023-03-08T00:57:07;3.70;99.90
8709;DHT22;4391;48.678;9.280;2023-03-08T00:59:34;3.60;99.90
8709;DHT22;4391;48.678;9.280;2023-03-08T01:02:01;3.50;99.90
8709;DHT22;4391;48.678;9.280;2023-03-08T01:06:57;3.30;99.90
8709;DHT22;4391;48.678;9.280;2023-03-08T01:09:23;3.20;99.90
8709;DHT22;4391;48.678;9.280;2023-03-08T01:11:50;3.20;99.90
8709;DHT22;4391;48.678;9.280;2023-03-08T01:14:17;3.10;99.90
8709;DHT22;4391;48.678;9.280;2023-03-08T01:16:44;3.00;99.90
8709;DHT22;4391;48.678;9.280;2023-03-08T01:19:11;3.00;99.90
8709;DHT22;4391;48.678;9.280;2023-03-08T01:21:37;3.00;99.90
8709;DHT22;4391;48.678;9.280;2023-03-08T01:24:06;3.00;99.90
8709;DHT22;4391;48.678;9.280;2023-03-08T01:26:33;2.90;99.90
8709;DHT22;4391;48.678;9.280;2023-03-08T01:28:59;2.90;99.90
8709;DHT22;4391;48.678;9.280;2023-03-08T01:31:28;2.90;99.90
8709;DHT22;4391;48.678;9.280;2023-03-08T01:33:55;2.90;99.90
8709;DHT22;4391;48.678;9.280;2023-03-08T01:36:24;2.90;99.90
8709;DHT22;4391;48.678;9.280;2023-03-08T01:38:51;2.80;99.90
8709;DHT22;4391;48.678;9.280;2023-03-08T01:41:22;2.70;99.90
8709;DHT22;4391;48.678;9.280;2023-03-08T01:43:49;2.70;99.90
8709;DHT22;4391;48.678;9.280;2023-03-08T01:46:19;2.60;99.90
8709;DHT22;4391;48.678;9.280;2023-03-08T01:48:51;2.50;99.90
8709;DHT22;4391;48.678;9.280;2023-03-08T01:51:23;2.50;99.90
8709;DHT22;4391;48.678;9.280;2023-03-08T01:53:52;2.40;99.90
8709;DHT22;4391;48.678;9.280;2023-03-08T01:56:21;2.40;99.90
8709;DHT22;4391;48.678;9.280;2023-03-08T01:58:49;2.30;99.90
8709;DHT22;4391;48.678;9.280;2023-03-08T02:01:17;2.20;99.90
8709;DHT22;4391;48.678;9.280;2023-03-08T02:03:44;2.30;99.90
8709;DHT22;4391;48.678;9.280;2023-03-08T02:06:13;2.20;99.90
8709;DHT22;4391;48.678;9.280;2023-03-08T02:08:40;2.20;99.90
8709;DHT22;4391;48.678;9.280;2023-03-08T02:11:08;2.10;99.90
8709;DHT22;4391;48.678;9.280;2023-03-08T02:13:37;2.20;99.90
8709;DHT22;4391;48.678;9.280;2023-03-08T02:16:06;2.20;99.90
8709;DHT22;4391;48.678;9.280;2023-03-08T02:18:33;2.20;99.90
8709;DHT22;4391;48.678;9.280;2023-03-08T02:21:00;2.20;99.90
8709;DHT22;4391;48.678;9.280;2023-03-08T02:23:28;2.20;99.90
8709;DHT22;4391;48.678;9.280;2023-03-08T02:25:57;2.20;99.90
8709;DHT22;4391;48.678;9.280;2023-03-08T02:28:26;2.30;99.90
8709;DHT22;4391;48.678;9.280;2023-03-08T02:30:53;2.30;99.90
8709;DHT22;4391;48.678;9.280;2023-03-08T02:33:21;2.30;99.90
8709;DHT22;4391;48.678;9.280;2023-03-08T02:35:48;2.40;99.90
8709;DHT22;4391;48.678;9.280;2023-03-08T02:38:17;2.40;99.90
8709;DHT22;4391;48.678;9.280;2023-03-08T02:40:46;2.50;99.90
8709;DHT22;4391;48.678;9.280;2023-03-08T02:43:16;2.40;99.90
8709;DHT22;4391;48.678;9.280;2023-03-08T02:45:43;2.50;99.90
8709;DHT22;4391;48.678;9.280;2023-03-08T02:48:11;2.50;99.90
8709;DHT22;4391;48.678;9.280;2023-03-08T02:50:38;2.60;99.90
8709;DHT22;4391;48.678;9.280;2023-03-08T02:53:05;2.60;99.90
8709;DHT22;4391;48.678;9.280;2023-03-08T02:55:32;2.70;99.90
8709;DHT22;4391;48.678;9.280;2023-03-08T02:58:02;2.70;99.90
8709;DHT22;4391;48.678;9.280;2023-03-08T03:00:29;2.80;99.90
8709;DHT22;4391;48.678;9.280;2023-03-08T03:02:56;2.80;99.90
8709;DHT22;4391;48.678;9.280;2023-03-08T03:05:23;2.90;99.90
8709;DHT22;4391;48.678;9.280;2023-03-08T03:07:50;2.90;99.90
8709;DHT22;4391;48.678;9.280;2023-03-08T03:10:20;2.90;99.90
8709;DHT22;4391;48.678;9.280;2023-03-08T03:12:46;2.90;99.90
8709;DHT22;4391;48.678;9.280;2023-03-08T03:15:15;2.90;99.90
8709;DHT22;4391;48.678;9.280;2023-03-08T03:17:41;2.90;99.90
8709;DHT22;4391;48.678;9.280;2023-03-08T03:20:09;3.00;99.90
8709;DHT22;4391;48.678;9.280;2023-03-08T03:22:36;3.00;99.90
8709;DHT22;4391;48.678;9.280;2023-03-08T03:25:03;3.00;99.90
8709;DHT22;4391;48.678;9.280;2023-03-08T03:27:30;3.00;99.90
8709;DHT22;4391;48.678;9.280;2023-03-08T03:29:57;3.00;99.90
8709;DHT22;4391;48.678;9.280;2023-03-08T03:32:26;3.00;99.90
8709;DHT22;4391;48.678;9.280;2023-03-08T03:34:52;3.00;99.90
8709;DHT22;4391;48.678;9.280;2023-03-08T03:37:20;3.00;99.90
8709;DHT22;4391;48.678;9.280;2023-03-08T03:39:46;2.90;99.90
8709;DHT22;4391;48.678;9.280;2023-03-08T03:42:13;3.00;99.90
8709;DHT22;4391;48.678;9.280;2023-03-08T03:44:40;2.90;99.90
8709;DHT22;4391;48.678;9.280;2023-03-08T03:47:07;3.00;99.90
8709;DHT22;4391;48.678;9.280;2023-03-08T03:49:36;3.00;99.90
8709;DHT22;4391;48.678;9.280;2023-03-08T03:52:03;3.00;99.90
8709;DHT22;4391;48.678;9.280;2023-03-08T03:54:30;3.10;99.90
8709;DHT22;4391;48.678;9.280;2023-03-08T03:56:56;3.10;99.90
8709;DHT22;4391;48.678;9.280;2023-03-08T03:59:24;3.00;99.90
8709;DHT22;4391;48.678;9.280;2023-03-08T04:01:51;3.10;99.90
8709;DHT22;4391;48.678;9.280;2023-03-08T04:04:18;3.10;99.90
8709;DHT22;4391;48.678;9.280;2023-03-08T04:06:47;3.10;99.90
8709;DHT22;4391;48.678;9.280;2023-03-08T04:09:16;3.10;99.90
8709;DHT22;4391;48.678;9.280;2023-03-08T04:11:43;3.10;99.90
8709;DHT22;4391;48.678;9.280;2023-03-08T04:14:10;3.10;99.90
8709;DHT22;4391;48.678;9.280;2023-03-08T04:16:38;3.20;99.90
8709;DHT22;4391;48.678;9.280;2023-03-08T04:19:08;3.20;99.90
8709;DHT22;4391;48.678;9.280;2023-03-08T04:21:35;3.10;99.90
8709;DHT22;4391;48.678;9.280;2023-03-08T04:24:04;3.00;99.90
8709;DHT22;4391;48.678;9.280;2023-03-08T04:26:31;3.10;99.90
8709;DHT22;4391;48.678;9.280;2023-03-08T04:28:58;3.00;99.90
8709;DHT22;4391;48.678;9.280;2023-03-08T04:31:28;3.00;99.90
8709;DHT22;4391;48.678;9.280;2023-03-08T04:33:55;3.00;99.90
8709;DHT22;4391;48.678;9.280;2023-03-08T04:36:22;2.90;99.90
8709;DHT22;4391;48.678;9.280;2023-03-08T04:38:50;2.90;99.90
8709;DHT22;4391;48.678;9.280;2023-03-08T04:41:18;2.90;99.90
8709;DHT22;4391;48.678;9.280;2023-03-08T04:43:46;3.00;99.90
8709;DHT22;4391;48.678;9.280;2023-03-08T04:46:15;3.00;99.90
8709;DHT22;4391;48.678;9.280;2023-03-08T04:48:42;3.10;99.90
8709;DHT22;4391;48.678;9.280;2023-03-08T04:51:10;3.10;99.90
8709;DHT22;4391;48.678;9.280;2023-03-08T04:53:38;3.20;99.90
8709;DHT22;4391;48.678;9.280;2023-03-08T04:56:06;3.20;99.90
8709;DHT22;4391;48.678;9.280;2023-03-08T04:58:35;3.30;99.90
8709;DHT22;4391;48.678;9.280;2023-03-08T05:01:08;3.40;99.90
8709;DHT22;4391;48.678;9.280;2023-03-08T05:03:35;3.50;99.90
8709;DHT22;4391;48.678;9.280;2023-03-08T05:06:02;3.50;99.90
8709;DHT22;4391;48.678;9.280;2023-03-08T05:08:29;3.50;99.90
8709;DHT22;4391;48.678;9.280;2023-03-08T05:10:57;3.50;99.90
8709;DHT22;4391;48.678;9.280;2023-03-08T05:13:25;3.40;99.90
8709;DHT22;4391;48.678;9.280;2023-03-08T05:15:53;3.40;99.90
8709;DHT22;4391;48.678;9.280;2023-03-08T05:18:20;3.40;99.90
8709;DHT22;4391;48.678;9.280;2023-03-08T05:20:52;3.40;99.90
8709;DHT22;4391;48.678;9.280;2023-03-08T05:23:20;3.40;99.90
8709;DHT22;4391;48.678;9.280;2023-03-08T05:25:51;3.30;99.90
8709;DHT22;4391;48.678;9.280;2023-03-08T05:28:18;3.30;99.90
8709;DHT22;4391;48.678;9.280;2023-03-08T05:30:45;3.30;99.90
8709;DHT22;4391;48.678;9.280;2023-03-08T05:33:13;3.30;99.90
8709;DHT22;4391;48.678;9.280;2023-03-08T05:35:40;3.30;99.90
8709;DHT22;4391;48.678;9.280;2023-03-08T05:38:07;3.20;99.90
8709;DHT22;4391;48.678;9.280;2023-03-08T05:40:33;3.30;99.90
8709;DHT22;4391;48.678;9.280;2023-03-08T05:43:00;3.30;99.90
8709;DHT22;4391;48.678;9.280;2023-03-08T05:45:27;3.20;99.90
8709;DHT22;4391;48.678;9.280;2023-03-08T05:47:54;3.20;99.90
8709;DHT22;4391;48.678;9.280;2023-03-08T05:50:22;3.20;99.90
8709;DHT22;4391;48.678;9.280;2023-03-08T05:52:48;3.10;99.90
8709;DHT22;4391;48.678;9.280;2023-03-08T05:55:15;3.10;99.90
8709;DHT22;4391;48.678;9.280;2023-03-08T05:57:42;3.10;99.90
8709;DHT22;4391;48.678;9.280;2023-03-08T06:00:10;3.10;99.90
8709;DHT22;4391;48.678;9.280;2023-03-08T06:02:37;3.10;99.90
8709;DHT22;4391;48.678;9.280;2023-03-08T06:05:04;3.10;99.90
8709;DHT22;4391;48.678;9.280;2023-03-08T06:07:32;3.10;99.90
8709;DHT22;4391;48.678;9.280;2023-03-08T06:09:59;3.00;99.90
8709;DHT22;4391;48.678;9.280;2023-03-08T06:12:26;3.10;99.90
8709;DHT22;4391;48.678;9.280;2023-03-08T06:14:53;3.10;99.90
8709;DHT22;4391;48.678;9.280;2023-03-08T06:17:20;3.20;99.90
8709;DHT22;4391;48.678;9.280;2023-03-08T06:19:47;3.20;99.90
8709;DHT22;4391;48.678;9.280;2023-03-08T06:22:15;3.20;99.90
8709;DHT22;4391;48.678;9.280;2023-03-08T06:24:43;3.20;99.90
8709;DHT22;4391;48.678;9.280;2023-03-08T06:27:14;3.30;99.90
8709;DHT22;4391;48.678;9.280;2023-03-08T06:29:40;3.30;99.90
8709;DHT22;4391;48.678;9.280;2023-03-08T06:32:07;3.30;99.90
8709;DHT22;4391;48.678;9.280;2023-03-08T06:34:34;3.30;99.90
8709;DHT22;4391;48.678;9.280;2023-03-08T06:37:01;3.30;99.90
8709;DHT22;4391;48.678;9.280;2023-03-08T06:39:28;3.30;99.90
8709;DHT22;4391;48.678;9.280;2023-03-08T06:41:57;3.30;99.90
8709;DHT22;4391;48.678;9.280;2023-03-08T06:44:25;3.30;99.90
8709;DHT22;4391;48.678;9.280;2023-03-08T06:46:52;3.40;99.90
8709;DHT22;4391;48.678;9.280;2023-03-08T06:49:19;3.40;99.90
8709;DHT22;4391;48.678;9.280;2023-03-08T06:51:46;3.50;99.90
8709;DHT22;4391;48.678;9.280;2023-03-08T06:54:13;3.50;99.90
8709;DHT22;4391;48.678;9.280;2023-03-08T06:56:42;3.50;99.90
8709;DHT22;4391;48.678;9.280;2023-03-08T06:59:10;3.50;99.90
8709;DHT22;4391;48.678;9.280;2023-03-08T07:01:37;3.50;99.90
8709;DHT22;4391;48.678;9.280;2023-03-08T07:04:04;3.60;99.90
8709;DHT22;4391;48.678;9.280;2023-03-08T07:06:31;3.70;99.90
8709;DHT22;4391;48.678;9.280;2023-03-08T07:08:58;3.70;99.90
8709;DHT22;4391;48.678;9.280;2023-03-08T07:11:25;3.80;99.90
8709;DHT22;4391;48.678;9.280;2023-03-08T07:13:54;3.80;99.90
8709;DHT22;4391;48.678;9.280;2023-03-08T07:16:22;3.90;99.90
8709;DHT22;4391;48.678;9.280;2023-03-08T07:18:49;4.00;99.90
8709;DHT22;4391;48.678;9.280;2023-03-08T07:21:15;4.00;99.90
8709;DHT22;4391;48.678;9.280;2023-03-08T07:23:42;4.10;99.90
8709;DHT22;4391;48.678;9.280;2023-03-08T07:26:09;4.20;99.90
8709;DHT22;4391;48.678;9.280;2023-03-08T07:28:36;4.20;99.90
8709;DHT22;4391;48.678;9.280;2023-03-08T07:31:03;4.30;99.90
8709;DHT22;4391;48.678;9.280;2023-03-08T07:33:32;4.40;99.90
8709;DHT22;4391;48.678;9.280;2023-03-08T07:35:59;4.50;99.90
8709;DHT22;4391;48.678;9.280;2023-03-08T07:38:27;4.70;99.90
8709;DHT22;4391;48.678;9.280;2023-03-08T07:40:54;4.70;99.90
8709;DHT22;4391;48.678;9.280;2023-03-08T07:43:21;4.80;99.90
8709;DHT22;4391;48.678;9.280;2023-03-08T07:45:48;4.80;99.90
8709;DHT22;4391;48.678;9.280;2023-03-08T07:48:15;4.90;99.90
8709;DHT22;4391;48.678;9.280;2023-03-08T07:50:43;4.90;99.90
8709;DHT22;4391;48.678;9.280;2023-03-08T07:53:10;5.00;99.90
8709;DHT22;4391;48.678;9.280;2023-03-08T07:55:37;5.00;99.90
8709;DHT22;4391;48.678;9.280;2023-03-08T07:58:03;5.00;99.90
8709;DHT22;4391;48.678;9.280;2023-03-08T08:00:30;5.00;99.90
8709;DHT22;4391;48.678;9.280;2023-03-08T08:02:57;5.00;99.90
8709;DHT22;4391;48.678;9.280;2023-03-08T08:05:24;5.00;99.90
8709;DHT22;4391;48.678;9.280;2023-03-08T08:07:52;5.00;99.90
8709;DHT22;4391;48.678;9.280;2023-03-08T08:10:19;5.10;99.90
8709;DHT22;4391;48.678;9.280;2023-03-08T08:12:46;5.10;99.90
8709;DHT22;4391;48.678;9.280;2023-03-08T08:15:13;5.10;99.90
8709;DHT22;4391;48.678;9.280;2023-03-08T08:17:40;5.00;99.90
8709;DHT22;4391;48.678;9.280;2023-03-08T08:20:08;5.10;99.90
8709;DHT22;4391;48.678;9.280;2023-03-08T08:22:35;5.10;99.90
8709;DHT22;4391;48.678;9.280;2023-03-08T08:25:05;5.10;99.90
8709;DHT22;4391;48.678;9.280;2023-03-08T08:27:32;5.20;99.90
8709;DHT22;4391;48.678;9.280;2023-03-08T08:29:59;5.20;99.90
8709;DHT22;4391;48.678;9.280;2023-03-08T08:32:26;5.30;99.90
8709;DHT22;4391;48.678;9.280;2023-03-08T08:34:53;5.30;99.90
8709;DHT22;4391;48.678;9.280;2023-03-08T08:37:19;5.40;99.90
8709;DHT22;4391;48.678;9.280;2023-03-08T08:39:46;5.30;99.90
8709;DHT22;4391;48.678;9.280;2023-03-08T08:42:14;5.30;99.90
8709;DHT22;4391;48.678;9.280;2023-03-08T08:44:43;5.30;99.90
8709;DHT22;4391;48.678;9.280;2023-03-08T08:47:10;5.30;99.90
8709;DHT22;4391;48.678;9.280;2023-03-08T08:49:44;5.40;99.90
8709;DHT22;4391;48.678;9.280;2023-03-08T08:52:11;5.40;99.90
8709;DHT22;4391;48.678;9.280;2023-03-08T08:54:38;5.40;99.90
8709;DHT22;4391;48.678;9.280;2023-03-08T08:57:05;5.50;99.90
8709;DHT22;4391;48.678;9.280;2023-03-08T08:59:33;5.50;99.90
8709;DHT22;4391;48.678;9.280;2023-03-08T09:02:00;5.50;99.90
8709;DHT22;4391;48.678;9.280;2023-03-08T09:04:27;5.40;99.90
8709;DHT22;4391;48.678;9.280;2023-03-08T09:06:54;5.40;99.90
8709;DHT22;4391;48.678;9.280;2023-03-08T09:09:21;5.40;99.90
8709;DHT22;4391;48.678;9.280;2023-03-08T09:11:48;5.40;99.90
8709;DHT22;4391;48.678;9.280;2023-03-08T09:14:14;5.40;99.90
8709;DHT22;4391;48.678;9.280;2023-03-08T09:16:43;5.40;99.90
8709;DHT22;4391;48.678;9.280;2023-03-08T09:19:09;5.50;99.90
8709;DHT22;4391;48.678;9.280;2023-03-08T09:21:36;5.40;99.90
8709;DHT22;4391;48.678;9.280;2023-03-08T09:24:04;5.50;99.90
8709;DHT22;4391;48.678;9.280;2023-03-08T09:26:32;5.60;99.90
8709;DHT22;4391;48.678;9.280;2023-03-08T09:29:00;5.60;99.90
8709;DHT22;4391;48.678;9.280;2023-03-08T09:31:29;5.70;99.90
8709;DHT22;4391;48.678;9.280;2023-03-08T09:33:57;5.80;99.90
8709;DHT22;4391;48.678;9.280;2023-03-08T09:36:24;5.80;99.90
8709;DHT22;4391;48.678;9.280;2023-03-08T09:38:53;5.80;99.90
8709;DHT22;4391;48.678;9.280;2023-03-08T09:41:34;5.80;99.90
8709;DHT22;4391;48.678;9.280;2023-03-08T09:44:16;5.90;99.90
8709;DHT22;4391;48.678;9.280;2023-03-08T09:46:46;5.90;99.90
8709;DHT22;4391;48.678;9.280;2023-03-08T09:49:18;5.90;99.90
8709;DHT22;4391;48.678;9.280;2023-03-08T09:51:51;6.00;99.90
8709;DHT22;4391;48.678;9.280;2023-03-08T09:54:21;6.10;99.90
8709;DHT22;4391;48.678;9.280;2023-03-08T09:56:50;6.20;99.90
8709;DHT22;4391;48.678;9.280;2023-03-08T09:59:22;6.40;99.90
8709;DHT22;4391;48.678;9.280;2023-03-08T10:01:57;6.60;99.90
8709;DHT22;4391;48.678;9.280;2023-03-08T10:04:40;6.80;99.90
8709;DHT22;4391;48.678;9.280;2023-03-08T10:07:20;7.00;99.90
8709;DHT22;4391;48.678;9.280;2023-03-08T10:09:57;7.30;99.90
8709;DHT22;4391;48.678;9.280;2023-03-08T10:12:43;7.50;99.90
8709;DHT22;4391;48.678;9.280;2023-03-08T10:15:16;7.60;99.90
8709;DHT22;4391;48.678;9.280;2023-03-08T10:17:48;7.90;99.90
8709;DHT22;4391;48.678;9.280;2023-03-08T10:20:22;8.00;99.90
8709;DHT22;4391;48.678;9.280;2023-03-08T10:22:55;8.20;99.90
8709;DHT22;4391;48.678;9.280;2023-03-08T10:25:24;8.10;99.90
8709;DHT22;4391;48.678;9.280;2023-03-08T10:27:53;8.10;99.90
8709;DHT22;4391;48.678;9.280;2023-03-08T10:30:23;8.10;99.90
8709;DHT22;4391;48.678;9.280;2023-03-08T10:32:54;8.20;99.90
8709;DHT22;4391;48.678;9.280;2023-03-08T10:35:33;8.30;99.90
8709;DHT22;4391;48.678;9.280;2023-03-08T10:38:01;8.30;99.90
8709;DHT22;4391;48.678;9.280;2023-03-08T10:40:28;8.40;1.00
8709;DHT22;4391;48.678;9.280;2023-03-08T10:42:59;8.50;1.00
8709;DHT22;4391;48.678;9.280;2023-03-08T10:45:28;8.80;1.00
8709;DHT22;4391;48.678;9.280;2023-03-08T10:47:57;9.00;1.00
8709;DHT22;4391;48.678;9.280;2023-03-08T10:50:26;9.30;1.00
8709;DHT22;4391;48.678;9.280;2023-03-08T10:52:55;9.50;1.00
8709;DHT22;4391;48.678;9.280;2023-03-08T10:55:25;9.90;1.00
8709;DHT22;4391;48.678;9.280;2023-03-08T10:57:55;10.60;1.00
8709;DHT22;4391;48.678;9.280;2023-03-08T11:00:33;10.70;1.00
8709;DHT22;4391;48.678;9.280;2023-03-08T11:03:04;10.60;1.00
8709;DHT22;4391;48.678;9.280;2023-03-08T11:05:36;10.60;1.00
8709;DHT22;4391;48.678;9.280;2023-03-08T11:08:15;10.50;1.00
8709;DHT22;4391;48.678;9.280;2023-03-08T11:10:42;10.80;1.00
8709;DHT22;4391;48.678;9.280;2023-03-08T11:13:20;10.90;1.00
8709;DHT22;4391;48.678;9.280;2023-03-08T11:15:52;11.20;1.00
8709;DHT22;4391;48.678;9.280;2023-03-08T11:18:27;11.30;1.00
8709;DHT22;4391;48.678;9.280;2023-03-08T11:21:03;11.60;99.90
8709;DHT22;4391;48.678;9.280;2023-03-08T11:23:36;11.80;99.90
8709;DHT22;4391;48.678;9.280;2023-03-08T11:26:11;12.20;99.90
8709;DHT22;4391;48.678;9.280;2023-03-08T11:28:51;12.40;99.90
8709;DHT22;4391;48.678;9.280;2023-03-08T11:31:27;12.70;99.90
8709;DHT22;4391;48.678;9.280;2023-03-08T11:34:13;12.90;99.90
8709;DHT22;4391;48.678;9.280;2023-03-08T11:36:46;13.30;99.90
8709;DHT22;4391;48.678;9.280;2023-03-08T11:39:24;13.10;99.90
8709;DHT22;4391;48.678;9.280;2023-03-08T11:41:56;13.20;99.90
8709;DHT22;4391;48.678;9.280;2023-03-08T11:44:42;13.00;99.90
8709;DHT22;4391;48.678;9.280;2023-03-08T11:47:42;13.20;99.90
8709;DHT22;4391;48.678;9.280;2023-03-08T11:50:17;13.10;99.90
8709;DHT22;4391;48.678;9.280;2023-03-08T11:52:55;13.00;99.90
8709;DHT22;4391;48.678;9.280;2023-03-08T11:55:44;12.80;99.90
8709;DHT22;4391;48.678;9.280;2023-03-08T11:58:17;12.60;99.90
8709;DHT22;4391;48.678;9.280;2023-03-08T12:00:49;12.40;99.90
8709;DHT22;4391;48.678;9.280;2023-03-08T12:03:20;12.40;99.90
8709;DHT22;4391;48.678;9.280;2023-03-08T12:05:51;12.40;99.90
8709;DHT22;4391;48.678;9.280;2023-03-08T12:08:23;12.40;99.90
8709;DHT22;4391;48.678;9.280;2023-03-08T12:10:55;12.50;99.90
8709;DHT22;4391;48.678;9.280;2023-03-08T12:13:26;12.40;99.90
8709;DHT22;4391;48.678;9.280;2023-03-08T12:15:58;12.30;99.90
8709;DHT22;4391;48.678;9.280;2023-03-08T12:18:30;12.50;99.90
8709;DHT22;4391;48.678;9.280;2023-03-08T12:21:10;12.60;99.90
8709;DHT22;4391;48.678;9.280;2023-03-08T12:23:45;12.50;99.90
8709;DHT22;4391;48.678;9.280;2023-03-08T12:26:18;12.50;99.90
8709;DHT22;4391;48.678;9.280;2023-03-08T12:28:51;12.40;99.90
8709;DHT22;4391;48.678;9.280;2023-03-08T12:31:23;12.50;99.90
8709;DHT22;4391;48.678;9.280;2023-03-08T12:33:52;12.60;99.90
8709;DHT22;4391;48.678;9.280;2023-03-08T12:36:19;12.60;99.90
8709;DHT22;4391;48.678;9.280;2023-03-08T12:38:49;12.70;99.90
8709;DHT22;4391;48.678;9.280;2023-03-08T12:41:25;12.80;99.90
8709;DHT22;4391;48.678;9.280;2023-03-08T12:43:59;12.90;99.90
8709;DHT22;4391;48.678;9.280;2023-03-08T12:46:26;13.00;99.90
8709;DHT22;4391;48.678;9.280;2023-03-08T12:48:53;13.00;99.90
8709;DHT22;4391;48.678;9.280;2023-03-08T12:51:23;13.00;99.90
8709;DHT22;4391;48.678;9.280;2023-03-08T12:53:58;12.90;99.90
8709;DHT22;4391;48.678;9.280;2023-03-08T12:56:30;12.80;99.90
8709;DHT22;4391;48.678;9.280;2023-03-08T12:59:00;12.80;99.90
8709;DHT22;4391;48.678;9.280;2023-03-08T13:01:31;12.70;99.90
8709;DHT22;4391;48.678;9.280;2023-03-08T13:03:58;12.70;99.90
8709;DHT22;4391;48.678;9.280;2023-03-08T13:09:21;12.40;99.90
8709;DHT22;4391;48.678;9.280;2023-03-08T13:11:57;12.30;1.00
8709;DHT22;4391;48.678;9.280;2023-03-08T13:14:27;12.30;1.00
8709;DHT22;4391;48.678;9.280;2023-03-08T13:17:35;12.20;1.00
8709;DHT22;4391;48.678;9.280;2023-03-08T13:20:13;12.20;1.00
8709;DHT22;4391;48.678;9.280;2023-03-08T13:22:51;12.30;1.00
8709;DHT22;4391;48.678;9.280;2023-03-08T13:25:27;12.30;1.00
8709;DHT22;4391;48.678;9.280;2023-03-08T13:28:03;12.20;1.00
8709;DHT22;4391;48.678;9.280;2023-03-08T13:30:33;12.10;1.00
8709;DHT22;4391;48.678;9.280;2023-03-08T13:33:05;12.20;1.00
8709;DHT22;4391;48.678;9.280;2023-03-08T13:35:33;12.20;1.00
8709;DHT22;4391;48.678;9.280;2023-03-08T13:38:00;12.20;1.00
8709;DHT22;4391;48.678;9.280;2023-03-08T13:40:28;12.20;1.00
8709;DHT22;4391;48.678;9.280;2023-03-08T13:42:58;12.20;1.00
8709;DHT22;4391;48.678;9.280;2023-03-08T13:45:26;12.20;1.00
8709;DHT22;4391;48.678;9.280;2023-03-08T13:47:56;12.20;1.00
8709;DHT22;4391;48.678;9.280;2023-03-08T13:50:27;12.20;1.00
8709;DHT22;4391;48.678;9.280;2023-03-08T13:52:55;12.20;1.00
8709;DHT22;4391;48.678;9.280;2023-03-08T13:55:26;12.20;1.00
8709;DHT22;4391;48.678;9.280;2023-03-08T13:57:55;12.30;1.00
8709;DHT22;4391;48.678;9.280;2023-03-08T14:00:26;12.30;1.00
8709;DHT22;4391;48.678;9.280;2023-03-08T14:02:55;12.40;1.00
8709;DHT22;4391;48.678;9.280;2023-03-08T14:05:25;12.60;1.00
8709;DHT22;4391;48.678;9.280;2023-03-08T14:07:56;12.80;1.00
8709;DHT22;4391;48.678;9.280;2023-03-08T14:10:33;13.00;1.00
8709;DHT22;4391;48.678;9.280;2023-03-08T14:13:01;13.10;99.90
8709;DHT22;4391;48.678;9.280;2023-03-08T14:15:30;13.20;99.90
8709;DHT22;4391;48.678;9.280;2023-03-08T14:17:58;13.30;99.90
8709;DHT22;4391;48.678;9.280;2023-03-08T14:20:27;13.50;99.90
8709;DHT22;4391;48.678;9.280;2023-03-08T14:22:54;13.80;99.90
8709;DHT22;4391;48.678;9.280;2023-03-08T14:25:24;13.60;99.90
8709;DHT22;4391;48.678;9.280;2023-03-08T14:27:51;13.50;99.90
8709;DHT22;4391;48.678;9.280;2023-03-08T14:30:20;13.40;99.90
8709;DHT22;4391;48.678;9.280;2023-03-08T14:32:58;13.40;99.90
8709;DHT22;4391;48.678;9.280;2023-03-08T14:35:27;13.50;99.90
8709;DHT22;4391;48.678;9.280;2023-03-08T14:37:54;13.40;99.90
8709;DHT22;4391;48.678;9.280;2023-03-08T14:40:30;13.30;99.90
8709;DHT22;4391;48.678;9.280;2023-03-08T14:42:59;13.20;99.90
8709;DHT22;4391;48.678;9.280;2023-03-08T14:45:34;13.20;99.90
8709;DHT22;4391;48.678;9.280;2023-03-08T14:48:23;13.20;99.90
8709;DHT22;4391;48.678;9.280;2023-03-08T14:50:52;13.20;99.90
8709;DHT22;4391;48.678;9.280;2023-03-08T14:53:28;13.10;99.90
8709;DHT22;4391;48.678;9.280;2023-03-08T14:55:56;13.10;99.90
8709;DHT22;4391;48.678;9.280;2023-03-08T14:58:26;13.20;99.90
8709;DHT22;4391;48.678;9.280;2023-03-08T15:00:55;13.30;99.90
8709;DHT22;4391;48.678;9.280;2023-03-08T15:03:23;13.50;99.90
8709;DHT22;4391;48.678;9.280;2023-03-08T15:05:50;13.70;99.90
8709;DHT22;4391;48.678;9.280;2023-03-08T15:08:17;13.70;99.90
8709;DHT22;4391;48.678;9.280;2023-03-08T15:10:45;13.60;99.90
8709;DHT22;4391;48.678;9.280;2023-03-08T15:13:15;13.60;99.90
8709;DHT22;4391;48.678;9.280;2023-03-08T15:15:42;13.70;99.90
8709;DHT22;4391;48.678;9.280;2023-03-08T15:18:09;13.60;99.90
8709;DHT22;4391;48.678;9.280;2023-03-08T15:20:39;13.50;1.00
8709;DHT22;4391;48.678;9.280;2023-03-08T15:23:15;13.70;1.00
8709;DHT22;4391;48.678;9.280;2023-03-08T15:25:43;13.80;1.00
8709;DHT22;4391;48.678;9.280;2023-03-08T15:28:13;14.40;99.90
8709;DHT22;4391;48.678;9.280;2023-03-08T15:30:41;15.20;99.90
8709;DHT22;4391;48.678;9.280;2023-03-08T15:33:08;14.80;99.90
8709;DHT22;4391;48.678;9.280;2023-03-08T15:35:37;14.60;99.90
8709;DHT22;4391;48.678;9.280;2023-03-08T15:38:04;14.10;99.90
8709;DHT22;4391;48.678;9.280;2023-03-08T15:40:32;13.50;99.90
8709;DHT22;4391;48.678;9.280;2023-03-08T15:42:59;13.20;99.90
8709;DHT22;4391;48.678;9.280;2023-03-08T15:45:26;13.10;99.90
8709;DHT22;4391;48.678;9.280;2023-03-08T15:47:55;13.00;1.00
8709;DHT22;4391;48.678;9.280;2023-03-08T15:50:22;12.90;1.00
8709;DHT22;4391;48.678;9.280;2023-03-08T15:52:51;12.90;1.00
8709;DHT22;4391;48.678;9.280;2023-03-08T15:55:19;12.80;1.00
8709;DHT22;4391;48.678;9.280;2023-03-08T15:57:46;12.80;1.00
8709;DHT22;4391;48.678;9.280;2023-03-08T16:00:15;12.80;1.00
8709;DHT22;4391;48.678;9.280;2023-03-08T16:02:42;12.80;1.00
8709;DHT22;4391;48.678;9.280;2023-03-08T16:05:11;12.80;1.00
8709;DHT22;4391;48.678;9.280;2023-03-08T16:07:38;12.70;1.00
8709;DHT22;4391;48.678;9.280;2023-03-08T16:10:09;12.70;1.00
8709;DHT22;4391;48.678;9.280;2023-03-08T16:12:36;12.70;1.00
8709;DHT22;4391;48.678;9.280;2023-03-08T16:15:04;12.70;1.00
8709;DHT22;4391;48.678;9.280;2023-03-08T16:17:31;12.70;1.00
8709;DHT22;4391;48.678;9.280;2023-03-08T16:19:59;12.60;1.00
8709;DHT22;4391;48.678;9.280;2023-03-08T16:22:26;12.70;1.00
8709;DHT22;4391;48.678;9.280;2023-03-08T16:24:53;12.60;1.00
8709;DHT22;4391;48.678;9.280;2023-03-08T16:27:21;12.40;1.00
8709;DHT22;4391;48.678;9.280;2023-03-08T16:29:51;12.30;1.00
8709;DHT22;4391;48.678;9.280;2023-03-08T16:32:23;12.30;1.00